Time;durP1;ratioP1;P1;durP2;ratioP2;P2;SDS_P1;SDS_P2;PMS_P1;PMS_P2;Temp;Humidity;BMP_temperature;BMP_pressure;BME280_temperature;BME280_humidity;BME280_pressure;Samples;Min_cycle;Max_cycle;Signal;HPM_P1;HPM_P2
2022/11/01 00:00:53;;;;;;;12.23;7.05;;;;;;;;;;4900037;28;94199;-81
2022/11/01 00:03:20;;;;;;;14.82;7.85;;;;;;;;;;4903696;28;92365;-84
2022/11/01 00:05:46;;;;;;;14.50;7.53;;;;;;;;;;4899726;28;94669;-82
2022/11/01 00:08:12;;;;;;;15.23;7.47;;;;;;;;;;4900183;28;92473;-82
2022/11/01 00:10:39;;;;;;;20.63;8.10;;;;;;;;;;4901092;28;93818;-82
2022/11/01 00:13:05;;;;;;;18.38;7.43;;;;;;;;;;4900976;28;93365;-83
2022/11/01 00:15:31;;;;;;;12.55;7.10;;;;;;;;;;4899835;28;92503;-82
2022/11/01 00:17:58;;;;;;;14.00;7.68;;;;;;;;;;4900634;28;93233;-82
2022/11/01 00:20:24;;;;;;;15.10;7.80;;;;;;;;;;4899428;28;96426;-82
2022/11/01 00:22:50;;;;;;;20.45;7.93;;;;;;;;;;4899959;28;92445;-82
2022/11/01 00:25:17;;;;;;;18.42;7.88;;;;;;;;;;4904556;28;94201;-84
2022/11/01 00:27:43;;;;;;;14.43;7.43;;;;;;;;;;4900315;28;92481;-83
2022/11/01 00:30:09;;;;;;;13.20;7.75;;;;;;;;;;4899976;28;93935;-83
2022/11/01 00:32:36;;;;;;;14.98;8.23;;;;;;;;;;4900251;28;94284;-82
2022/11/01 00:35:02;;;;;;;13.23;7.68;;;;;;;;;;4899554;28;92889;-83
2022/11/01 00:37:29;;;;;;;19.70;7.93;;;;;;;;;;4901294;28;94042;-82
2022/11/01 00:39:55;;;;;;;18.60;7.63;;;;;;;;;;4900637;28;94592;-82
2022/11/01 00:42:21;;;;;;;17.50;7.78;;;;;;;;;;4899841;28;92863;-82
2022/11/01 00:44:48;;;;;;;16.38;7.32;;;;;;;;;;4899308;28;94788;-83
2022/11/01 00:47:14;;;;;;;13.88;8.23;;;;;;;;;;4903022;28;94179;-83
2022/11/01 00:49:40;;;;;;;19.27;7.40;;;;;;;;;;4899604;28;92388;-82
2022/11/01 00:52:07;;;;;;;13.85;7.55;;;;;;;;;;4899682;28;94149;-82
2022/11/01 00:54:33;;;;;;;21.35;7.93;;;;;;;;;;4899741;28;92383;-84
2022/11/01 00:56:59;;;;;;;16.20;8.30;;;;;;;;;;4898960;28;93097;-83
2022/11/01 00:59:26;;;;;;;15.63;7.55;;;;;;;;;;4899339;28;94656;-82
2022/11/01 01:01:52;;;;;;;11.63;7.00;;;;;;;;;;4899877;28;91884;-82
2022/11/01 01:04:19;;;;;;;16.20;7.10;;;;;;;;;;4899313;28;92775;-82
2022/11/01 01:06:45;;;;;;;12.52;6.38;;;;;;;;;;4903092;28;94234;-84
2022/11/01 01:09:11;;;;;;;22.48;6.93;;;;;;;;;;4898288;28;95372;-84
2022/11/01 01:11:37;;;;;;;17.17;6.43;;;;;;;;;;4899134;28;93492;-83
2022/11/01 01:14:04;;;;;;;9.57;6.47;;;;;;;;;;4899801;28;92678;-83
2022/11/01 01:16:30;;;;;;;17.80;7.50;;;;;;;;;;4899592;28;93831;-83
2022/11/01 01:18:57;;;;;;;14.48;7.43;;;;;;;;;;4898283;28;93276;-83
2022/11/01 01:21:23;;;;;;;18.55;7.35;;;;;;;;;;4899681;28;92344;-84
2022/11/01 01:23:50;;;;;;;15.57;7.45;;;;;;;;;;4899449;28;94380;-83
2022/11/01 01:26:16;;;;;;;17.67;7.50;;;;;;;;;;4899725;28;92697;-84
2022/11/01 01:28:42;;;;;;;19.20;6.80;;;;;;;;;;4902261;28;92509;-83
2022/11/01 01:31:11;;;;;;;19.10;6.90;;;;;;;;;;4898902;28;94206;-83
2022/11/01 01:33:37;;;;;;;22.05;6.85;;;;;;;;;;4896934;28;94871;-83
2022/11/01 01:36:04;;;;;;;13.38;7.07;;;;;;;;;;4899103;28;96494;-83
2022/11/01 01:38:31;;;;;;;13.32;7.28;;;;;;;;;;4897799;28;94372;-83
2022/11/01 01:43:43;;;;;;;20.35;7.10;;;;;;;;;;4898757;28;93248;-83
2022/11/01 01:46:09;;;;;;;16.05;6.75;;;;;;;;;;4898436;28;94289;-83
2022/11/01 01:48:36;;;;;;;12.23;6.35;;;;;;;;;;4899729;28;92494;-83
2022/11/01 01:51:04;;;;;;;22.65;7.10;;;;;;;;;;4902802;28;92977;-83
2022/11/01 01:53:35;;;;;;;11.55;6.47;;;;;;;;;;4899175;28;93379;-83
2022/11/01 01:56:04;;;;;;;12.95;6.85;;;;;;;;;;4899006;28;92454;-83
2022/11/01 01:58:32;;;;;;;14.25;6.20;;;;;;;;;;4897212;28;96503;-83
2022/11/01 02:00:59;;;;;;;9.80;7.20;;;;;;;;;;4898568;28;92408;-83
2022/11/01 02:03:30;;;;;;;15.82;6.57;;;;;;;;;;4898699;28;94052;-83
2022/11/01 02:05:59;;;;;;;12.45;7.82;;;;;;;;;;4897204;28;94341;-83
2022/11/01 02:08:26;;;;;;;16.30;7.35;;;;;;;;;;4901974;28;92463;-83
2022/11/01 02:10:58;;;;;;;16.73;6.97;;;;;;;;;;4902843;28;93574;-84
2022/11/01 02:13:24;;;;;;;12.43;6.20;;;;;;;;;;4905542;28;94577;-84
2022/11/01 02:16:04;;;;;;;21.88;5.90;;;;;;;;;;4902426;28;93813;-84
2022/11/01 02:18:30;;;;;;;11.05;6.07;;;;;;;;;;4902695;28;94029;-84
2022/11/01 02:21:02;;;;;;;12.70;6.55;;;;;;;;;;4902291;28;92457;-84
2022/11/01 02:23:35;;;;;;;11.60;6.20;;;;;;;;;;4901660;28;95614;-85
2022/11/01 02:26:07;;;;;;;9.68;6.18;;;;;;;;;;4901582;28;95128;-85
2022/11/01 02:28:33;;;;;;;;;;;;;;;;;;4901500;28;93059;-85
2022/11/01 02:31:06;;;;;;;12.43;6.13;;;;;;;;;;4903109;28;106001;-84
2022/11/01 02:33:55;;;;;;;15.55;6.25;;;;;;;;;;4902364;28;93759;-85
2022/11/01 02:36:32;;;;;;;15.10;5.40;;;;;;;;;;4896131;28;92443;-83
2022/11/01 02:39:00;;;;;;;10.93;6.05;;;;;;;;;;4904327;28;92287;-83
2022/11/01 02:41:38;;;;;;;13.35;6.03;;;;;;;;;;4887997;28;91877;-83
2022/11/01 02:44:15;;;;;;;19.52;6.57;;;;;;;;;;4902097;28;93306;-84
2022/11/01 02:47:01;;;;;;;8.25;5.85;;;;;;;;;;4902203;28;94334;-84
2022/11/01 02:49:29;;;;;;;14.55;5.93;;;;;;;;;;4899529;28;94921;-84
2022/11/01 02:51:58;;;;;;;10.30;6.05;;;;;;;;;;4901891;28;96540;-85
2022/11/01 02:54:32;;;;;;;8.73;5.80;;;;;;;;;;4902164;28;94192;-86
2022/11/01 02:57:04;;;;;;;15.63;5.68;;;;;;;;;;4901821;28;92422;-84
2022/11/01 02:59:40;;;;;;;8.23;6.13;;;;;;;;;;4904640;28;93039;-86
2022/11/01 03:02:08;;;;;;;9.02;5.72;;;;;;;;;;4901407;28;92819;-85
2022/11/01 03:04:35;;;;;;;10.45;6.10;;;;;;;;;;4901435;28;92744;-86
2022/11/01 03:07:04;;;;;;;10.95;5.38;;;;;;;;;;4902136;28;92558;-86
2022/11/01 03:09:31;;;;;;;12.77;6.05;;;;;;;;;;4901814;28;92443;-86
2022/11/01 03:12:00;;;;;;;12.85;5.85;;;;;;;;;;4900602;28;93893;-84
2022/11/01 03:14:50;;;;;;;9.55;5.28;;;;;;;;;;4900260;28;96855;-84
2022/11/01 03:17:25;;;;;;;9.88;6.07;;;;;;;;;;4901288;28;92977;-85
2022/11/01 03:19:51;;;;;;;15.40;5.82;;;;;;;;;;4904512;28;94183;-84
2022/11/01 03:22:21;;;;;;;16.60;5.75;;;;;;;;;;4902105;28;92478;-85
2022/11/01 03:24:59;;;;;;;16.92;6.25;;;;;;;;;;4901526;28;92371;-85
2022/11/01 03:27:33;;;;;;;8.50;5.50;;;;;;;;;;4901074;28;94354;-84
2022/11/01 03:30:02;;;;;;;10.02;5.15;;;;;;;;;;4901550;28;93287;-85
2022/11/01 03:32:32;;;;;;;10.55;5.00;;;;;;;;;;4901625;28;93180;-84
2022/11/01 03:35:00;;;;;;;9.10;5.10;;;;;;;;;;4900676;28;96033;-85
2022/11/01 03:37:27;;;;;;;8.98;4.00;;;;;;;;;;4901652;28;92491;-85
2022/11/01 03:39:55;;;;;;;11.48;4.95;;;;;;;;;;4898504;28;94711;-85
2022/11/01 03:42:23;;;;;;;9.85;4.88;;;;;;;;;;4903936;28;94067;-84
2022/11/01 03:44:52;;;;;;;14.15;4.95;;;;;;;;;;4901078;28;94587;-83
2022/11/01 03:47:19;;;;;;;7.55;4.88;;;;;;;;;;4901334;28;94423;-84
2022/11/01 03:49:45;;;;;;;13.85;4.20;;;;;;;;;;4901146;28;92395;-85
2022/11/01 03:52:12;;;;;;;9.35;4.32;;;;;;;;;;4900923;28;92337;-84
2022/11/01 03:54:38;;;;;;;9.65;4.50;;;;;;;;;;4901442;28;93280;-84
2022/11/01 03:57:04;;;;;;;7.50;3.15;;;;;;;;;;4901404;28;91720;-85
2022/11/01 03:59:31;;;;;;;3.92;2.13;;;;;;;;;;4900024;28;93318;-86
2022/11/01 04:01:57;;;;;;;5.28;1.75;;;;;;;;;;4900555;28;94353;-85
2022/11/01 04:04:24;;;;;;;6.63;1.55;;;;;;;;;;4903268;28;95076;-84
2022/11/01 04:06:51;;;;;;;4.15;1.45;;;;;;;;;;4900477;28;93270;-86
2022/11/01 04:09:17;;;;;;;3.08;1.27;;;;;;;;;;4900983;28;92382;-84
2022/11/01 04:11:43;;;;;;;3.45;1.25;;;;;;;;;;4901029;28;93775;-83
2022/11/01 04:22:41;;;;;;;2.90;1.27;;;;;;;;;;4897694;28;91600;-83
2022/11/01 04:25:07;;;;;;;2.60;1.10;;;;;;;;;;4900620;28;92367;-84
2022/11/01 04:27:34;;;;;;;4.57;1.50;;;;;;;;;;4902794;28;93910;-84
2022/11/01 04:30:00;;;;;;;1.88;1.10;;;;;;;;;;4898723;28;95118;-84
2022/11/01 04:32:26;;;;;;;5.15;1.50;;;;;;;;;;4900632;28;96661;-84
2022/11/01 04:34:53;;;;;;;3.33;1.20;;;;;;;;;;4899808;28;94073;-83
2022/11/01 04:37:19;;;;;;;4.70;1.00;;;;;;;;;;4900643;28;92481;-84
2022/11/01 04:39:45;;;;;;;2.05;1.00;;;;;;;;;;4901106;28;94110;-84
2022/11/01 04:42:12;;;;;;;3.92;1.55;;;;;;;;;;4899273;28;93182;-84
2022/11/01 04:44:38;;;;;;;5.25;1.48;;;;;;;;;;4899838;28;92554;-84
2022/11/01 04:47:04;;;;;;;5.50;1.48;;;;;;;;;;4900511;28;93970;-84
2022/11/01 04:49:31;;;;;;;4.70;1.23;;;;;;;;;;4902879;28;93521;-84
2022/11/01 04:51:57;;;;;;;2.30;1.20;;;;;;;;;;4901828;28;93907;-84
2022/11/01 04:54:23;;;;;;;3.75;1.42;;;;;;;;;;4900597;28;96545;-84
2022/11/01 04:56:50;;;;;;;4.22;1.35;;;;;;;;;;4903990;28;92366;-82
2022/11/01 04:59:17;;;;;;;4.57;1.40;;;;;;;;;;4900295;28;92768;-85
2022/11/01 05:01:44;;;;;;;2.55;1.30;;;;;;;;;;4899633;28;94030;-86
2022/11/01 05:04:10;;;;;;;8.63;1.10;;;;;;;;;;4898709;28;92439;-84
2022/11/01 05:06:37;;;;;;;6.40;1.20;;;;;;;;;;4899870;28;93789;-83
2022/11/01 05:09:03;;;;;;;2.38;1.30;;;;;;;;;;4899357;28;93957;-82
2022/11/01 05:11:30;;;;;;;3.20;1.65;;;;;;;;;;4901986;28;92672;-84
2022/11/01 05:13:56;;;;;;;6.28;0.93;;;;;;;;;;4899123;28;93598;-85
2022/11/01 05:16:22;;;;;;;2.60;1.10;;;;;;;;;;4899409;28;92909;-84
2022/11/01 05:18:49;;;;;;;4.15;1.23;;;;;;;;;;4899098;28;94660;-84
2022/11/01 05:21:15;;;;;;;2.90;0.88;;;;;;;;;;4900091;28;93425;-83
2022/11/01 05:23:41;;;;;;;2.65;1.02;;;;;;;;;;4898902;28;92509;-84
2022/11/01 05:26:08;;;;;;;3.65;1.40;;;;;;;;;;4899858;28;93861;-83
2022/11/01 05:28:34;;;;;;;5.43;1.40;;;;;;;;;;4900070;28;93395;-84
2022/11/01 05:31:01;;;;;;;9.55;1.70;;;;;;;;;;4901865;28;92522;-84
2022/11/01 05:33:27;;;;;;;5.13;1.30;;;;;;;;;;4899224;28;93292;-84
2022/11/01 05:35:53;;;;;;;7.43;1.27;;;;;;;;;;4899938;28;91676;-83
2022/11/01 05:38:19;;;;;;;10.85;1.80;;;;;;;;;;4899039;28;93163;-84
2022/11/01 05:40:46;;;;;;;8.07;2.15;;;;;;;;;;4898984;28;94397;-84
2022/11/01 05:43:13;;;;;;;10.35;2.00;;;;;;;;;;4897078;28;94892;-84
2022/11/01 05:45:39;;;;;;;5.38;1.90;;;;;;;;;;4898961;28;95572;-84
2022/11/01 05:48:06;;;;;;;7.38;2.15;;;;;;;;;;4899440;28;94091;-83
2022/11/01 05:50:32;;;;;;;8.55;1.77;;;;;;;;;;4899040;28;92461;-84
2022/11/01 05:53:05;;;;;;;5.60;1.73;;;;;;;;;;4902018;28;93078;-84
2022/11/01 05:55:32;;;;;;;8.13;1.88;;;;;;;;;;4899381;28;92403;-83
2022/11/01 05:57:59;;;;;;;5.47;1.33;;;;;;;;;;4898767;28;94396;-84
2022/11/01 06:00:25;;;;;;;5.78;1.60;;;;;;;;;;4898406;28;92320;-84
2022/11/01 06:02:52;;;;;;;10.55;1.80;;;;;;;;;;4899476;28;92422;-83
2022/11/01 06:05:18;;;;;;;5.95;1.38;;;;;;;;;;4899571;28;93949;-84
2022/11/01 06:07:44;;;;;;;7.32;1.83;;;;;;;;;;4897150;28;97012;-84
2022/11/01 06:10:11;;;;;;;7.78;2.17;;;;;;;;;;4898903;28;92512;-84
2022/11/01 06:12:37;;;;;;;4.70;2.45;;;;;;;;;;4898016;28;93794;-84
2022/11/01 06:15:03;;;;;;;4.00;1.58;;;;;;;;;;4902170;28;94190;-84
2022/11/01 06:17:30;;;;;;;12.27;2.05;;;;;;;;;;4899135;28;93935;-84
2022/11/01 06:19:57;;;;;;;3.03;1.20;;;;;;;;;;4897940;28;93326;-84
2022/11/01 06:22:23;;;;;;;7.28;1.77;;;;;;;;;;4899488;28;92398;-84
2022/11/01 06:24:49;;;;;;;9.50;1.90;;;;;;;;;;4900008;28;93971;-82
2022/11/01 06:27:16;;;;;;;8.57;1.67;;;;;;;;;;4898282;28;93276;-84
2022/11/01 06:29:42;;;;;;;5.20;1.58;;;;;;;;;;4899347;28;92560;-84
2022/11/01 06:32:08;;;;;;;8.77;2.10;;;;;;;;;;4897730;28;94870;-84
2022/11/01 06:34:35;;;;;;;3.40;1.50;;;;;;;;;;4898175;28;94577;-84
2022/11/01 06:37:04;;;;;;;7.88;1.75;;;;;;;;;;4902101;28;92381;-84
2022/11/01 06:39:31;;;;;;;6.20;1.35;;;;;;;;;;4899431;28;93473;-83
2022/11/01 06:41:57;;;;;;;6.63;1.70;;;;;;;;;;4898868;28;92465;-83
2022/11/01 06:44:23;;;;;;;4.40;1.67;;;;;;;;;;4899431;28;93080;-83
2022/11/01 06:46:50;;;;;;;11.73;2.40;;;;;;;;;;4899014;28;93244;-83
2022/11/01 06:49:16;;;;;;;7.03;2.25;;;;;;;;;;4898468;28;91944;-80
2022/11/01 06:51:44;;;;;;;8.82;1.85;;;;;;;;;;4899013;28;92493;-84
2022/11/01 06:54:11;;;;;;;10.95;2.22;;;;;;;;;;4901595;28;93205;-82
2022/11/01 06:56:37;;;;;;;10.85;2.70;;;;;;;;;;4897153;28;95261;-82
2022/11/01 06:59:03;;;;;;;17.17;2.47;;;;;;;;;;4904653;28;96537;-83
2022/11/01 07:01:30;;;;;;;11.45;2.25;;;;;;;;;;4901296;28;92532;-82
2022/11/01 07:03:56;;;;;;;15.10;2.47;;;;;;;;;;4901153;28;93009;-83
2022/11/01 07:06:27;;;;;;;15.68;2.72;;;;;;;;;;4886090;28;94275;-83
2022/11/01 07:08:53;;;;;;;13.88;3.33;;;;;;;;;;4901211;28;92997;-82
2022/11/01 07:11:20;;;;;;;10.93;2.90;;;;;;;;;;4892338;28;92575;-81
2022/11/01 07:13:46;;;;;;;19.38;2.85;;;;;;;;;;4883460;28;93281;-83
2022/11/01 07:16:13;;;;;;;10.00;2.25;;;;;;;;;;4881439;28;92750;-84
2022/11/01 07:18:39;;;;;;;18.67;3.22;;;;;;;;;;4885595;28;93890;-82
2022/11/01 07:21:06;;;;;;;10.55;2.38;;;;;;;;;;4880881;28;94935;-83
2022/11/01 07:23:32;;;;;;;13.98;3.13;;;;;;;;;;4882044;28;96471;-84
2022/11/01 07:25:59;;;;;;;13.82;2.67;;;;;;;;;;4882699;28;92303;-84
2022/11/01 07:28:25;;;;;;;12.10;2.45;;;;;;;;;;4882057;28;92447;-86
2022/11/01 07:30:53;;;;;;;10.65;2.53;;;;;;;;;;4881659;28;92904;-85
2022/11/01 07:33:20;;;;;;;9.88;2.38;;;;;;;;;;4882923;28;93457;-86
2022/11/01 07:35:47;;;;;;;12.27;2.38;;;;;;;;;;4882709;28;92337;-83
2022/11/01 07:38:14;;;;;;;10.77;2.35;;;;;;;;;;4882535;28;93964;-84
2022/11/01 07:40:41;;;;;;;8.35;2.90;;;;;;;;;;4886113;28;93697;-83
2022/11/01 07:43:08;;;;;;;17.08;3.17;;;;;;;;;;4882180;28;93917;-84
2022/11/01 07:45:34;;;;;;;10.30;3.15;;;;;;;;;;4880106;28;95924;-84
2022/11/01 07:48:02;;;;;;;9.13;2.65;;;;;;;;;;4881858;28;92487;-85
2022/11/01 07:50:30;;;;;;;19.38;3.55;;;;;;;;;;4882086;28;93969;-84
2022/11/01 07:53:00;;;;;;;15.90;3.17;;;;;;;;;;4881244;28;92898;-85
2022/11/01 07:55:27;;;;;;;8.45;2.20;;;;;;;;;;4883007;28;92374;-84
2022/11/01 07:57:53;;;;;;;10.13;2.72;;;;;;;;;;4901351;28;93969;-83
2022/11/01 08:00:19;;;;;;;14.23;2.72;;;;;;;;;;4900833;28;94123;-84
2022/11/01 08:02:46;;;;;;;13.90;2.78;;;;;;;;;;4902430;28;92019;-84
2022/11/01 08:05:12;;;;;;;12.80;2.60;;;;;;;;;;4893481;28;94183;-85
2022/11/01 08:07:41;;;;;;;11.80;2.78;;;;;;;;;;4881516;28;92426;-83
2022/11/01 08:10:08;;;;;;;12.10;3.05;;;;;;;;;;4893511;28;94814;-83
2022/11/01 08:12:35;;;;;;;9.45;2.47;;;;;;;;;;4901534;28;93673;-85
2022/11/01 08:15:01;;;;;;;20.27;3.42;;;;;;;;;;4882847;28;92530;-83
2022/11/01 08:17:28;;;;;;;12.65;3.03;;;;;;;;;;4882823;28;93952;-84
2022/11/01 08:19:55;;;;;;;7.72;1.98;;;;;;;;;;4881601;28;94116;-85
2022/11/01 08:22:21;;;;;;;15.30;3.40;;;;;;;;;;4881917;28;92569;-84
2022/11/01 08:24:47;;;;;;;19.25;3.53;;;;;;;;;;4885325;28;94132;-86
2022/11/01 08:27:14;;;;;;;12.48;2.75;;;;;;;;;;4880641;28;91800;-85
2022/11/01 08:29:40;;;;;;;14.32;3.20;;;;;;;;;;4881950;28;92545;-89
2022/11/01 08:32:09;;;;;;;10.30;2.53;;;;;;;;;;4882349;28;92425;-87
2022/11/01 08:34:35;;;;;;;14.60;3.22;;;;;;;;;;4880361;28;95312;-88
2022/11/01 08:37:02;;;;;;;12.63;2.88;;;;;;;;;;4881697;28;96631;-90
2022/11/01 08:39:28;;;;;;;14.93;2.80;;;;;;;;;;4880992;28;93466;-88
2022/11/01 08:41:56;;;;;;;15.68;3.13;;;;;;;;;;4880996;28;92407;-88
2022/11/01 08:44:23;;;;;;;15.82;2.90;;;;;;;;;;4881943;28;93950;-86
2022/11/01 08:46:52;;;;;;;12.50;3.25;;;;;;;;;;4884274;28;94488;-83
2022/11/01 08:49:18;;;;;;;12.13;2.78;;;;;;;;;;4884046;28;92815;-84
2022/11/01 08:51:44;;;;;;;12.07;2.60;;;;;;;;;;4901586;28;93431;-85
2022/11/01 08:54:11;;;;;;;10.00;2.75;;;;;;;;;;4901353;28;92433;-86
2022/11/01 08:56:38;;;;;;;14.52;4.00;;;;;;;;;;4900920;28;92514;-89
2022/11/01 08:59:04;;;;;;;11.43;3.03;;;;;;;;;;4900023;28;95724;-85
2022/11/01 09:01:30;;;;;;;8.30;2.30;;;;;;;;;;4902757;28;92458;-88
2022/11/01 09:03:57;;;;;;;19.67;2.85;;;;;;;;;;4902828;28;93826;-86
2022/11/01 09:06:24;;;;;;;17.70;3.22;;;;;;;;;;4900680;28;93271;-83
2022/11/01 09:08:52;;;;;;;12.93;3.25;;;;;;;;;;4902017;28;92451;-85
2022/11/01 09:11:19;;;;;;;15.93;3.42;;;;;;;;;;4900628;28;94137;-88
2022/11/01 09:13:45;;;;;;;10.95;3.08;;;;;;;;;;4901223;28;92388;-87
2022/11/01 09:16:11;;;;;;;16.92;2.55;;;;;;;;;;4900551;28;93980;-86
2022/11/01 09:18:38;;;;;;;11.13;2.90;;;;;;;;;;4901043;28;94319;-86
2022/11/01 09:21:06;;;;;;;9.27;2.55;;;;;;;;;;4900929;28;92329;-88
2022/11/01 09:23:33;;;;;;;7.88;2.35;;;;;;;;;;4899376;28;95566;-86
2022/11/01 09:26:00;;;;;;;19.70;3.38;;;;;;;;;;4909172;28;93063;-85
2022/11/01 09:28:27;;;;;;;13.75;2.60;;;;;;;;;;4909224;28;92472;-87
2022/11/01 09:31:02;;;;;;;14.73;2.67;;;;;;;;;;4901556;28;93165;-86
2022/11/01 09:33:45;;;;;;;17.30;3.38;;;;;;;;;;4899040;28;92341;-85
2022/11/01 09:36:12;;;;;;;10.40;2.42;;;;;;;;;;4980503;23;94064;-85
2022/11/01 09:38:38;;;;;;;15.82;4.35;;;;;;;;;;4956989;28;93454;-84
2022/11/01 09:41:10;;;;;;;9.95;2.95;;;;;;;;;;4957942;28;91715;-87
2022/11/01 09:43:38;;;;;;;13.50;3.35;;;;;;;;;;4957974;28;93469;-84
2022/11/01 09:46:05;;;;;;;12.10;3.22;;;;;;;;;;4958641;28;94169;-85
2022/11/01 09:48:33;;;;;;;19.80;3.15;;;;;;;;;;4957446;28;94821;-84
2022/11/01 09:51:01;;;;;;;15.13;3.53;;;;;;;;;;4960124;28;94412;-84
2022/11/01 09:53:28;;;;;;;15.60;2.60;;;;;;;;;;4958687;28;92393;-84
2022/11/01 09:56:04;;;;;;;15.32;2.67;;;;;;;;;;4960562;28;92239;-85
2022/11/01 09:58:30;;;;;;;16.38;3.67;;;;;;;;;;4976227;28;92649;-84
2022/11/01 10:01:04;;;;;;;20.05;3.58;;;;;;;;;;4977415;28;92355;-84
2022/11/01 10:04:01;;;;;;;16.60;3.42;;;;;;;;;;4976735;28;92841;-84
2022/11/01 10:06:34;;;;;;;20.92;2.90;;;;;;;;;;4906221;28;93303;-85
2022/11/01 10:09:15;;;;;;;10.07;2.95;;;;;;;;;;4976486;28;92492;-86
2022/11/01 10:11:50;;;;;;;12.65;3.00;;;;;;;;;;4976307;28;94034;-85
2022/11/01 10:14:22;;;;;;;15.35;2.80;;;;;;;;;;4978411;28;96653;-84
2022/11/01 10:16:56;;;;;;;24.75;3.55;;;;;;;;;;4976445;28;94366;-82
2022/11/01 10:19:23;;;;;;;21.13;3.75;;;;;;;;;;4976031;28;92439;-83
2022/11/01 10:21:51;;;;;;;16.05;3.35;;;;;;;;;;4977121;28;93237;-83
2022/11/01 10:24:26;;;;;;;13.95;2.63;;;;;;;;;;4947123;28;93918;-83
2022/11/01 10:26:54;;;;;;;14.20;3.35;;;;;;;;;;4956564;28;94008;-83
2022/11/01 10:29:29;;;;;;;14.13;3.25;;;;;;;;;;4951512;28;92440;-83
2022/11/01 10:31:56;;;;;;;14.52;3.75;;;;;;;;;;4941990;28;93336;-83
2022/11/01 10:34:25;;;;;;;22.08;4.10;;;;;;;;;;4941414;28;93418;-85
2022/11/01 10:36:55;;;;;;;18.85;3.13;;;;;;;;;;4944041;28;92470;-83
2022/11/01 10:39:36;;;;;;;12.23;3.00;;;;;;;;;;4938879;28;97045;-83
2022/11/01 10:42:20;;;;;;;11.10;2.95;;;;;;;;;;4956878;28;92387;-83
2022/11/01 10:44:53;;;;;;;12.10;2.97;;;;;;;;;;4960430;28;93811;-83
2022/11/01 10:47:21;;;;;;;12.05;2.60;;;;;;;;;;4959345;28;93355;-83
2022/11/01 10:49:56;;;;;;;13.02;3.05;;;;;;;;;;4960904;28;92544;-84
2022/11/01 10:52:46;;;;;;;14.50;3.63;;;;;;;;;;4956234;28;94294;-83
2022/11/01 10:55:23;;;;;;;13.13;2.60;;;;;;;;;;4941071;28;94291;-84
2022/11/01 10:57:52;;;;;;;18.60;3.22;;;;;;;;;;4979758;28;91699;-84
2022/11/01 11:00:20;;;;;;;14.25;2.55;;;;;;;;;;4983495;28;93560;-85
2022/11/01 11:02:48;;;;;;;12.63;3.50;;;;;;;;;;4979791;28;92550;-83
2022/11/01 11:05:15;;;;;;;7.07;2.05;;;;;;;;;;4979216;28;94707;-83
2022/11/01 11:07:42;;;;;;;14.18;2.97;;;;;;;;;;4979205;28;93216;-83
2022/11/01 11:10:14;;;;;;;14.30;2.40;;;;;;;;;;4979473;28;92437;-82
2022/11/01 11:12:48;;;;;;;11.45;2.72;;;;;;;;;;4970764;28;92358;-85
2022/11/01 11:15:19;;;;;;;8.85;2.70;;;;;;;;;;4959822;28;94149;-84
2022/11/01 11:17:50;;;;;;;19.33;3.00;;;;;;;;;;4960825;28;92560;-85
2022/11/01 11:20:19;;;;;;;16.85;3.25;;;;;;;;;;4961249;28;92861;-84
2022/11/01 11:22:46;;;;;;;20.02;3.40;;;;;;;;;;4963206;28;93534;-85
2022/11/01 11:25:14;;;;;;;13.40;3.13;;;;;;;;;;4960260;28;93325;-85
2022/11/01 11:27:46;;;;;;;10.75;2.78;;;;;;;;;;4960258;28;94115;-84
2022/11/01 11:30:24;;;;;;;13.07;2.55;;;;;;;;;;4957076;28;94917;-84
2022/11/01 11:32:52;;;;;;;12.82;2.88;;;;;;;;;;4959778;28;96696;-84
2022/11/01 11:35:20;;;;;;;7.82;2.10;;;;;;;;;;4958466;28;93252;-82
2022/11/01 11:37:54;;;;;;;12.88;2.90;;;;;;;;;;4958940;28;92420;-85
2022/11/01 11:40:25;;;;;;;12.60;3.20;;;;;;;;;;4940300;28;93092;-86
2022/11/01 11:42:53;;;;;;;15.63;2.95;;;;;;;;;;4942464;28;94079;-87
2022/11/01 11:45:21;;;;;;;19.50;3.38;;;;;;;;;;4939618;28;93198;-86
2022/11/01 11:47:47;;;;;;;17.88;2.80;;;;;;;;;;4944622;28;93139;-86
2022/11/01 11:50:20;;;;;;;14.48;2.60;;;;;;;;;;4949604;28;92225;-86
2022/11/01 11:52:47;;;;;;;12.73;2.83;;;;;;;;;;4948930;28;93907;-85
2022/11/01 11:55:25;;;;;;;7.60;2.22;;;;;;;;;;4938336;28;96452;-86
2022/11/01 11:57:52;;;;;;;14.30;2.90;;;;;;;;;;4977284;28;92518;-84
2022/11/01 12:00:21;;;;;;;13.98;2.65;;;;;;;;;;4969140;28;94005;-84
2022/11/01 12:02:49;;;;;;;11.85;2.45;;;;;;;;;;4945893;28;93301;-84
2022/11/01 12:05:17;;;;;;;17.13;3.47;;;;;;;;;;4942559;28;92898;-85
2022/11/01 12:07:48;;;;;;;14.70;3.00;;;;;;;;;;4957882;28;97042;-85
2022/11/01 12:10:35;;;;;;;18.23;2.75;;;;;;;;;;4953041;28;92446;-85
2022/11/01 12:13:03;;;;;;;14.60;2.85;;;;;;;;;;4938761;28;92073;-86
2022/11/01 12:15:33;;;;;;;11.57;3.13;;;;;;;;;;4939081;28;94139;-85
2022/11/01 12:18:08;;;;;;;11.27;2.35;;;;;;;;;;4938798;28;92454;-85
2022/11/01 12:20:41;;;;;;;13.20;3.08;;;;;;;;;;4936348;28;94804;-86
2022/11/01 12:23:17;;;;;;;11.65;2.53;;;;;;;;;;4938995;28;94149;-83
2022/11/01 12:25:44;;;;;;;8.55;2.50;;;;;;;;;;4939079;28;92346;-81
2022/11/01 12:28:23;;;;;;;11.45;2.53;;;;;;;;;;4942681;28;93977;-87
2022/11/01 12:30:51;;;;;;;11.20;2.60;;;;;;;;;;4939959;28;92493;-87
2022/11/01 12:33:23;;;;;;;7.65;2.67;;;;;;;;;;4939308;28;93896;-87
2022/11/01 12:35:51;;;;;;;14.20;2.35;;;;;;;;;;4939226;28;94202;-86
2022/11/01 12:38:26;;;;;;;11.10;2.35;;;;;;;;;;4940457;28;91682;-87
2022/11/01 12:40:53;;;;;;;13.75;2.72;;;;;;;;;;4938814;28;93202;-86
2022/11/01 12:43:19;;;;;;;12.15;2.42;;;;;;;;;;4938780;28;93869;-86
2022/11/01 12:45:48;;;;;;;11.18;2.65;;;;;;;;;;4937909;28;94875;-87
2022/11/01 12:48:19;;;;;;;20.17;3.63;;;;;;;;;;4937443;28;95252;-87
2022/11/01 12:50:49;;;;;;;10.73;1.85;;;;;;;;;;4924266;28;94425;-86
2022/11/01 12:53:17;;;;;;;16.05;3.05;;;;;;;;;;4939567;28;92323;-87
2022/11/01 12:55:44;;;;;;;9.85;2.28;;;;;;;;;;4938477;28;94232;-87
2022/11/01 12:58:12;;;;;;;10.32;2.47;;;;;;;;;;4939138;28;92424;-86
2022/11/01 13:00:59;;;;;;;11.07;1.83;;;;;;;;;;4938933;28;93577;-86
2022/11/01 13:03:44;;;;;;;7.93;2.90;;;;;;;;;;4939684;28;91546;-86
2022/11/01 13:06:14;;;;;;;12.50;2.75;;;;;;;;;;4938594;28;92468;-87
2022/11/01 13:08:51;;;;;;;13.32;2.92;;;;;;;;;;4938693;28;94021;-87
2022/11/01 13:11:23;;;;;;;9.07;2.17;;;;;;;;;;4937319;28;95840;-86
2022/11/01 13:13:56;;;;;;;6.13;2.17;;;;;;;;;;4941863;28;92359;-87
2022/11/01 13:16:26;;;;;;;5.25;1.80;;;;;;;;;;5009865;22;94269;-87
2022/11/01 13:19:02;;;;;;;7.15;2.05;;;;;;;;;;4997516;28;92359;-87
2022/11/01 13:21:43;;;;;;;11.02;2.45;;;;;;;;;;4996715;28;92959;-87
2022/11/01 13:24:25;;;;;;;5.85;2.22;;;;;;;;;;4997799;28;94498;-87
2022/11/01 13:27:04;;;;;;;11.63;2.40;;;;;;;;;;4998091;28;92423;-87
2022/11/01 13:29:38;;;;;;;9.65;1.92;;;;;;;;;;4998404;28;93869;-87
2022/11/01 13:32:13;;;;;;;13.63;2.58;;;;;;;;;;4997299;28;92865;-88
2022/11/01 13:34:49;;;;;;;6.05;2.13;;;;;;;;;;4997362;28;92512;-87
2022/11/01 13:37:16;;;;;;;12.07;2.17;;;;;;;;;;4998811;28;94867;-87
2022/11/01 13:40:01;;;;;;;8.40;1.75;;;;;;;;;;4997827;28;92397;-87
2022/11/01 13:42:35;;;;;;;13.02;2.05;;;;;;;;;;4997335;28;93137;-87
2022/11/01 13:45:13;;;;;;;8.18;2.08;;;;;;;;;;4996633;28;94120;-87
2022/11/01 13:47:45;;;;;;;5.45;1.90;;;;;;;;;;4998284;28;92363;-88
2022/11/01 13:50:27;;;;;;;6.13;1.83;;;;;;;;;;4996797;28;94299;-87
2022/11/01 13:53:19;;;;;;;11.60;2.33;;;;;;;;;;4997236;28;93556;-87
2022/11/01 13:55:46;;;;;;;7.00;1.92;;;;;;;;;;4993980;28;91784;-87
2022/11/01 13:58:17;;;;;;;11.35;2.55;;;;;;;;;;5000274;28;93030;-87
2022/11/01 14:00:44;;;;;;;8.30;3.13;;;;;;;;;;4997335;28;92359;-87
2022/11/01 14:03:15;;;;;;;10.30;2.20;;;;;;;;;;4995218;28;94730;-86
2022/11/01 14:05:43;;;;;;;7.47;2.42;;;;;;;;;;5005474;28;94371;-87
2022/11/01 14:08:11;;;;;;;6.93;1.83;;;;;;;;;;5014769;28;92180;-87
2022/11/01 14:10:38;;;;;;;6.50;1.75;;;;;;;;;;5011387;28;92298;-86
2022/11/01 14:13:14;;;;;;;11.25;1.63;;;;;;;;;;4997126;28;94070;-87
2022/11/01 14:15:52;;;;;;;8.05;1.75;;;;;;;;;;4996643;28;92273;-86
2022/11/01 14:18:21;;;;;;;7.35;1.77;;;;;;;;;;4996217;28;93161;-84
2022/11/01 14:20:54;;;;;;;6.22;1.50;;;;;;;;;;5003611;28;93427;-84
2022/11/01 14:23:30;;;;;;;8.10;2.13;;;;;;;;;;4999267;28;92376;-84
2022/11/01 14:26:15;;;;;;;7.93;1.92;;;;;;;;;;4995679;28;93118;-80
2022/11/01 14:28:43;;;;;;;12.95;2.20;;;;;;;;;;4994325;28;94839;-84
2022/11/01 14:31:10;;;;;;;11.02;2.20;;;;;;;;;;4997794;28;94433;-86
2022/11/01 14:33:37;;;;;;;14.60;2.30;;;;;;;;;;4996522;28;94177;-82
2022/11/01 14:36:04;;;;;;;8.98;2.47;;;;;;;;;;4996078;28;92818;-79
2022/11/01 14:38:35;;;;;;;12.02;2.08;;;;;;;;;;4996508;28;93986;-84
2022/11/01 14:41:04;;;;;;;11.77;1.80;;;;;;;;;;4995919;28;94773;-82
2022/11/01 14:43:33;;;;;;;8.15;1.83;;;;;;;;;;4999329;28;92501;-82
2022/11/01 14:46:08;;;;;;;4.97;1.70;;;;;;;;;;4997405;28;93526;-82
2022/11/01 14:48:39;;;;;;;8.13;2.47;;;;;;;;;;4997561;28;92485;-84
2022/11/01 14:51:26;;;;;;;8.10;1.92;;;;;;;;;;4996742;28;94084;-83
2022/11/01 14:54:00;;;;;;;8.43;1.67;;;;;;;;;;4993929;28;96528;-84
2022/11/01 14:56:31;;;;;;;12.27;2.67;;;;;;;;;;4996577;28;92369;-84
2022/11/01 14:59:13;;;;;;;10.13;2.58;;;;;;;;;;4996333;28;93320;-84